Tenerife Norte / Los Rodeos GCXO

Aviation Digital Data Service (ADDS)

Output produced by METARs form (1909 UTC 20 October 2017)
METAR text: GCXO 201900Z 32012KT 280V340 9999 FEW007 SCT016 18/15 Q1024 NOSIG
Conditions at: GCXO (TENERIFE/LOS ROD, ES) observed 1900 UTC 20 October 2017
Temperature: 18.0°C (64°F)
Dewpoint: 15.0°C (59°F) [RH = 83%]
Pressure (altimeter): 30.24 inches Hg (1024.0 mb)
Winds: from the NW (320 degrees) at 14 MPH (12 knots; 6.2 m/s)
Visibility: 6 or more miles (10+ km)
Ceiling: at least 12,000 feet AGL
Clouds: few clouds at 700 feet AGL
scattered clouds at 1600 feet AGL
Weather: no significant weather observed at this time

Forecast for: GCXO (TENERIFE/LOS ROD, ES)
Text: TAF GCXO 201400Z 2015/2115 34012KT 9999 SCT020 TX23/2113Z TN16/2106Z
Forecast period: 1500 UTC 20 October 2017 to 1500 UTC 21 October 2017
Forecast type: FROM: standard forecast or significant change
Winds: from the NNW (340 degrees) at 14 MPH (12 knots; 6.2 m/s)
Visibility: 6 or more miles (10+ km)
Clouds: scattered clouds at 2000 feet AGL
Weather: no significant weather forecast for this period
Text: PROB30
Forecast period: 0400 to 1500 UTC 21 October 2017
Forecast type: TEMPORARY: The following changes expected for less than half the time period
Visibility: 1.86 miles (2.99 km)
Ceiling: 600 feet AGL
Clouds: broken clouds at 600 feet AGL
Weather: RA BCFG  (rain, patches of fog)

Tenerife Sur / Aeropuerto GCTS

Aviation Digital Data Service (ADDS)

Output produced by METARs form (1909 UTC 20 October 2017)
METAR text: GCTS 201900Z 07015KT 9999 FEW045 SCT050 24/15 Q1021 NOSIG
Conditions at: GCTS (TENERIFE SUR/REI, ES) observed 1900 UTC 20 October 2017
Temperature: 24.0°C (75°F)
Dewpoint: 15.0°C (59°F) [RH = 57%]
Pressure (altimeter): 30.15 inches Hg (1021.0 mb)
Winds: from the ENE (70 degrees) at 17 MPH (15 knots; 7.8 m/s)
Visibility: 6 or more miles (10+ km)
Ceiling: at least 12,000 feet AGL
Clouds: few clouds at 4500 feet AGL
scattered clouds at 5000 feet AGL
Weather: no significant weather observed at this time

Forecast for: GCTS (TENERIFE SUR/REI, ES)
Text: TAF GCTS 201400Z 2015/2115 07015KT 9999 SCT050 TX28/2113Z TN20/2106Z
Forecast period: 1500 UTC 20 October 2017 to 1500 UTC 21 October 2017
Forecast type: FROM: standard forecast or significant change
Winds: from the ENE (70 degrees) at 17 MPH (15 knots; 7.8 m/s)
Visibility: 6 or more miles (10+ km)
Clouds: scattered clouds at 5000 feet AGL
Weather: no significant weather forecast for this period

La Palma / Aeropuerto GCLA

Aviation Digital Data Service (ADDS)

Output produced by METARs form (1909 UTC 20 October 2017)
METAR text: GCLA 201900Z 36008KT 9999 SCT035 24/18 Q1023
Conditions at: GCLA (LA PALMA AIRPORT, ES) observed 1900 UTC 20 October 2017
Temperature: 24.0°C (75°F)
Dewpoint: 18.0°C (64°F) [RH = 69%]
Pressure (altimeter): 30.21 inches Hg (1023.0 mb)
Winds: from the N (360 degrees) at 9 MPH (8 knots; 4.2 m/s)
Visibility: 6 or more miles (10+ km)
Ceiling: at least 12,000 feet AGL
Clouds: scattered clouds at 3500 feet AGL
Weather: no significant weather observed at this time

Forecast for: GCLA (LA PALMA AIRPORT, ES)
Text: TAF GCLA 201400Z 2015/2115 02008KT 9999 SCT040 TX24/2113Z TN20/2106Z
Forecast period: 1500 UTC 20 October 2017 to 1500 UTC 21 October 2017
Forecast type: FROM: standard forecast or significant change
Winds: from the NNE (20 degrees) at 9 MPH (8 knots; 4.2 m/s)
Visibility: 6 or more miles (10+ km)
Clouds: scattered clouds at 4000 feet AGL
Weather: no significant weather forecast for this period

Hierro / Aeropuerto GCHI

Aviation Digital Data Service (ADDS)

Output produced by METARs form (1909 UTC 20 October 2017)
METAR text: GCHI 201900Z AUTO 02014KT 340V050 9999 BKN057 24/19 Q1022
Conditions at: GCHI (HIERRO AIRPORT , ES) observed 1900 UTC 20 October 2017
Temperature: 24.0°C (75°F)
Dewpoint: 19.0°C (66°F) [RH = 74%]
Pressure (altimeter): 30.18 inches Hg (1022.0 mb)
Winds: from the NNE (20 degrees) at 16 MPH (14 knots; 7.3 m/s)
Visibility: 6 or more miles (10+ km)
Ceiling: 5700 feet AGL
Clouds: broken clouds at 5700 feet AGL
Weather: no significant weather observed at this time

Forecast for: GCHI (HIERRO AIRPORT , ES)
Text: TAF GCHI 201400Z 2015/2115 02010KT 9999 BKN025 TX26/2113Z TN22/2106Z
Forecast period: 1500 UTC 20 October 2017 to 1500 UTC 21 October 2017
Forecast type: FROM: standard forecast or significant change
Winds: from the NNE (20 degrees) at 12 MPH (10 knots; 5.2 m/s)
Visibility: 6 or more miles (10+ km)
Ceiling: 2500 feet AGL
Clouds: broken clouds at 2500 feet AGL
Weather: no significant weather forecast for this period

Gran Canaria / Aeropuerto GCLP

Aviation Digital Data Service (ADDS)

Output produced by METARs form (1909 UTC 20 October 2017)
METAR text: GCLP 201900Z 01014KT 9999 FEW020 23/18 Q1021 NOSIG
Conditions at: GCLP (LAS PALMAS/GANDO, ES) observed 1900 UTC 20 October 2017
Temperature: 23.0°C (73°F)
Dewpoint: 18.0°C (64°F) [RH = 73%]
Pressure (altimeter): 30.15 inches Hg (1021.0 mb)
Winds: from the N (10 degrees) at 16 MPH (14 knots; 7.3 m/s)
Visibility: 6 or more miles (10+ km)
Ceiling: at least 12,000 feet AGL
Clouds: few clouds at 2000 feet AGL
Weather: no significant weather observed at this time

Forecast for: GCLP (LAS PALMAS/GANDO, ES)
Text: TAF GCLP 201400Z 2015/2115 02020KT 9999 SCT040 TX26/2113Z TN21/2106Z
Forecast period: 1500 UTC 20 October 2017 to 1500 UTC 21 October 2017
Forecast type: FROM: standard forecast or significant change
Winds: from the NNE (20 degrees) at 23 MPH (20 knots; 10.4 m/s)
Visibility: 6 or more miles (10+ km)
Clouds: scattered clouds at 4000 feet AGL
Weather: no significant weather forecast for this period

Fuerteventura / Aeropuerto GCFV

Aviation Digital Data Service (ADDS)

Output produced by METARs form (1909 UTC 20 October 2017)
METAR text: GCFV 201900Z 03011KT 360V070 9999 FEW025 SCT042 24/19 Q1021
Conditions at: GCFV (FUERTEVENTURA AR, ES) observed 1900 UTC 20 October 2017
Temperature: 24.0°C (75°F)
Dewpoint: 19.0°C (66°F) [RH = 74%]
Pressure (altimeter): 30.15 inches Hg (1021.0 mb)
Winds: from the NNE (30 degrees) at 13 MPH (11 knots; 5.7 m/s)
Visibility: 6 or more miles (10+ km)
Ceiling: at least 12,000 feet AGL
Clouds: few clouds at 2500 feet AGL
scattered clouds at 4200 feet AGL
Weather: no significant weather observed at this time

Forecast for: GCFV (FUERTEVENTURA AR, ES)
Text: TAF GCFV 201400Z 2015/2115 04012KT 9999 SCT040 TX26/2113Z TN21/2106Z
Forecast period: 1500 UTC 20 October 2017 to 1500 UTC 21 October 2017
Forecast type: FROM: standard forecast or significant change
Winds: from the NE (40 degrees) at 14 MPH (12 knots; 6.2 m/s)
Visibility: 6 or more miles (10+ km)
Clouds: scattered clouds at 4000 feet AGL
Weather: no significant weather forecast for this period

Lanzarote / Aeropuerto GCRR

Aviation Digital Data Service (ADDS)

Output produced by METARs form (1909 UTC 20 October 2017)
METAR text: GCRR 201900Z 01013KT 9999 FEW020 SCT030 23/18 Q1021
Conditions at: GCRR (ARRECIFE/LANZARO, ES) observed 1900 UTC 20 October 2017
Temperature: 23.0°C (73°F)
Dewpoint: 18.0°C (64°F) [RH = 73%]
Pressure (altimeter): 30.15 inches Hg (1021.0 mb)
Winds: from the N (10 degrees) at 15 MPH (13 knots; 6.8 m/s)
Visibility: 6 or more miles (10+ km)
Ceiling: at least 12,000 feet AGL
Clouds: few clouds at 2000 feet AGL
scattered clouds at 3000 feet AGL
Weather: no significant weather observed at this time

Forecast for: GCRR (ARRECIFE/LANZARO, ES)
Text: TAF GCRR 201400Z 2015/2115 01014KT 9999 SCT040 TX27/2113Z TN21/2106Z
Forecast period: 1500 UTC 20 October 2017 to 1500 UTC 21 October 2017
Forecast type: FROM: standard forecast or significant change
Winds: from the N (10 degrees) at 16 MPH (14 knots; 7.3 m/s)
Visibility: 6 or more miles (10+ km)
Clouds: scattered clouds at 4000 feet AGL
Weather: no significant weather forecast for this period